createdAt,value
2017-05-16T00:00:59.161Z,37.4
2017-05-16T00:01:59.165Z,37.6
2017-05-16T00:02:59.174Z,37.79
2017-05-16T00:03:59.180Z,37.79
2017-05-16T00:04:59.190Z,37.79
2017-05-16T00:05:59.200Z,37.4
2017-05-16T00:06:59.201Z,37.12
2017-05-16T00:07:59.209Z,37.5
2017-05-16T00:08:59.218Z,37.4
2017-05-16T00:09:59.227Z,37.5
2017-05-16T00:10:58.922Z,37.5
2017-05-16T00:11:59.348Z,37.7
2017-05-16T00:12:59.296Z,37.7
2017-05-16T00:13:59.254Z,37.7
2017-05-16T00:14:59.262Z,37.5
2017-05-16T00:15:59.271Z,37.4
2017-05-16T00:16:59.279Z,37.6
2017-05-16T00:17:59.292Z,37.5
2017-05-16T00:18:59.342Z,37.7
2017-05-16T00:19:59.305Z,37.5
2017-05-16T00:20:59.357Z,37.79
2017-05-16T00:21:59.313Z,37.7
2017-05-16T00:22:59.329Z,37.7
2017-05-16T00:23:59.327Z,37.3
2017-05-16T00:24:59.337Z,37.79
2017-05-16T00:25:59.342Z,37.79
2017-05-16T00:26:59.353Z,37.7
2017-05-16T00:27:59.364Z,37.7
2017-05-16T00:28:59.379Z,37.79
2017-05-16T00:29:59.378Z,37.79
2017-05-16T00:30:59.383Z,37.79
2017-05-16T00:31:59.390Z,37.5
2017-05-16T00:32:59.402Z,37.7
2017-05-16T00:33:59.405Z,37.6
2017-05-16T00:34:59.414Z,37.6
2017-05-16T00:35:59.420Z,37.6
2017-05-16T00:36:59.424Z,37.88
2017-05-16T00:37:59.437Z,37.77
2017-05-16T00:38:59.132Z,37.6
2017-05-16T00:39:59.450Z,37.88
2017-05-16T00:40:59.463Z,37.7
2017-05-16T00:41:59.463Z,37.79
2017-05-16T00:42:59.161Z,37.7
2017-05-16T00:43:59.481Z,37.7
2017-05-16T00:44:59.536Z,37.6
2017-05-16T00:45:59.494Z,37.7
2017-05-16T00:46:59.503Z,37.79
2017-05-16T00:47:59.509Z,37.88
2017-05-16T00:48:59.517Z,37.88
2017-05-16T00:49:59.217Z,37.79
2017-05-16T00:50:59.533Z,37.87
2017-05-16T00:51:59.594Z,37.79
2017-05-16T00:52:59.549Z,37.7
2017-05-16T00:53:59.557Z,37.7
2017-05-16T00:54:59.617Z,37.6
2017-05-16T00:55:59.569Z,37.7
2017-05-16T00:56:59.578Z,37.6
2017-05-16T00:57:59.336Z,37.7
2017-05-16T00:58:59.591Z,37.6
2017-05-16T00:59:59.599Z,37.6
2017-05-16T01:00:59.348Z,37.6
2017-05-16T01:01:59.305Z,37.6
2017-05-16T01:02:59.673Z,37.7
2017-05-16T01:03:59.694Z,37.6
2017-05-16T01:04:59.689Z,37.7
2017-05-16T01:05:59.646Z,37.7
2017-05-16T01:06:59.651Z,37.79
2017-05-16T01:07:59.398Z,37.6
2017-05-16T01:08:59.668Z,37.6
2017-05-16T01:09:59.365Z,37.79
2017-05-16T01:10:59.371Z,37.88
2017-05-16T01:11:59.690Z,37.88
2017-05-16T01:12:59.701Z,37.67
2017-05-16T01:13:59.702Z,37.96
2017-05-16T01:14:59.713Z,37.88
2017-05-16T01:15:59.726Z,37.79
2017-05-16T01:16:59.727Z,37.79
2017-05-16T01:17:59.738Z,37.79
2017-05-16T01:18:59.743Z,38.08
2017-05-16T01:19:59.750Z,37.88
2017-05-16T01:20:59.756Z,37.79
2017-05-16T01:21:59.765Z,37.7
2017-05-16T01:22:59.773Z,37.77
2017-05-16T01:23:59.831Z,37.67
2017-05-16T01:24:59.791Z,37.77
2017-05-16T01:25:59.484Z,37.79
2017-05-16T01:26:59.800Z,37.79
2017-05-16T01:27:59.550Z,37.79
2017-05-16T01:28:59.817Z,37.58
2017-05-16T01:29:59.877Z,37.77
2017-05-16T01:30:59.833Z,37.77
2017-05-16T01:31:59.846Z,37.79
2017-05-16T01:32:59.540Z,37.7
2017-05-16T01:33:59.855Z,37.88
2017-05-16T01:34:59.558Z,37.79
2017-05-16T01:35:59.870Z,37.87
2017-05-16T01:36:59.880Z,37.79
2017-05-16T01:37:59.939Z,37.77
2017-05-16T01:38:59.897Z,37.77
2017-05-16T01:39:59.902Z,37.38
2017-05-16T01:40:59.906Z,37.79
2017-05-16T01:41:59.917Z,37.77
2017-05-16T01:42:59.926Z,37.79
2017-05-16T01:43:59.929Z,37.79
2017-05-16T01:44:59.938Z,37.77
2017-05-16T01:45:59.948Z,37.79
2017-05-16T01:47:00.006Z,37.88
2017-05-16T01:47:59.963Z,37.87
2017-05-16T01:48:59.969Z,37.77
2017-05-16T01:49:59.662Z,37.79
2017-05-16T01:50:59.983Z,37.79
2017-05-16T01:51:59.990Z,37.6
2017-05-16T01:52:59.997Z,37.79
2017-05-16T01:53:59.693Z,37.67
2017-05-16T01:55:00.013Z,37.48
2017-05-16T01:56:00.070Z,37.79
2017-05-16T01:56:59.717Z,37.77
2017-05-16T01:58:00.084Z,37.58
2017-05-16T01:58:59.734Z,37.77
2017-05-16T01:59:59.739Z,37.67
2017-05-16T02:01:00.058Z,37.77
2017-05-16T02:02:00.066Z,37.79
2017-05-16T02:03:00.071Z,37.96
2017-05-16T02:04:00.082Z,37.88
2017-05-16T02:05:00.137Z,37.79
2017-05-16T02:06:00.093Z,37.88
2017-05-16T02:07:00.151Z,37.6
2017-05-16T02:08:00.159Z,37.7
2017-05-16T02:09:00.117Z,37.77
2017-05-16T02:10:00.125Z,37.67
2017-05-16T02:11:00.134Z,37.79
2017-05-16T02:12:00.138Z,37.79
2017-05-16T02:13:00.145Z,37.6
2017-05-16T02:14:00.203Z,37.67
2017-05-16T02:15:00.163Z,37.79
2017-05-16T02:16:00.223Z,37.79
2017-05-16T02:17:00.178Z,37.87
2017-05-16T02:18:00.185Z,37.98
2017-05-16T02:19:00.192Z,37.96
2017-05-16T02:20:00.200Z,37.29
2017-05-16T02:21:00.210Z,37.29
2017-05-16T02:22:00.265Z,37.58
2017-05-16T02:23:00.274Z,37.77
2017-05-16T02:23:59.920Z,37.29
2017-05-16T02:24:59.929Z,37.38
2017-05-16T02:25:59.932Z,37.3
2017-05-16T02:27:00.252Z,37.96
2017-05-16T02:28:00.259Z,37.67
2017-05-16T02:29:00.317Z,37.38
2017-05-16T02:29:59.967Z,38.06
2017-05-16T02:31:00.281Z,37.58
2017-05-16T02:32:00.289Z,37.79
2017-05-16T02:33:00.297Z,37.77
2017-05-16T02:34:00.307Z,37.79
2017-05-16T02:35:00.311Z,37.77
2017-05-16T02:36:00.368Z,37.77
2017-05-16T02:37:00.327Z,37.77
2017-05-16T02:38:00.029Z,37.87
2017-05-16T02:39:00.341Z,37.7
2017-05-16T02:40:00.347Z,37.67
2017-05-16T02:41:00.356Z,37.77
2017-05-16T02:42:00.363Z,37.77
2017-05-16T02:43:00.371Z,37.79
2017-05-16T02:44:00.380Z,37.77
2017-05-16T02:45:00.127Z,37.87
2017-05-16T02:46:00.448Z,37.79
2017-05-16T02:47:00.406Z,37.96
2017-05-16T02:48:00.412Z,37.38
2017-05-16T02:49:00.104Z,37.96
2017-05-16T02:50:00.431Z,38.06
2017-05-16T02:51:00.120Z,37.29
2017-05-16T02:52:00.510Z,37.38
2017-05-16T02:53:00.452Z,38.06
2017-05-16T02:54:00.455Z,37.87
2017-05-16T02:55:00.466Z,37.87
2017-05-16T02:56:00.469Z,37.96
2017-05-16T02:57:00.475Z,37.48
2017-05-16T02:58:00.174Z,37.77
2017-05-16T02:59:00.492Z,37.87
2017-05-16T03:00:00.501Z,37.58
2017-05-16T03:01:00.505Z,37.88
2017-05-16T03:02:00.519Z,37.79
2017-05-16T03:03:00.525Z,37.77
2017-05-16T03:04:00.530Z,37.38
2017-05-16T03:05:00.538Z,37.98
2017-05-16T03:06:00.543Z,37.98
2017-05-16T03:07:00.601Z,37.77
2017-05-16T03:08:00.254Z,37.87
2017-05-16T03:09:00.566Z,37.67
2017-05-16T03:10:00.578Z,37.67
2017-05-16T03:11:00.267Z,37.58
2017-05-16T03:12:00.590Z,37.96
2017-05-16T03:13:00.648Z,37.77
2017-05-16T03:14:00.607Z,37.96
2017-05-16T03:15:00.615Z,37.87
2017-05-16T03:16:00.312Z,37.96
2017-05-16T03:17:00.627Z,37.96
2017-05-16T03:18:00.637Z,37.58
2017-05-16T03:19:00.642Z,37.77
2017-05-16T03:20:00.391Z,37.87
2017-05-16T03:21:00.657Z,37.87
2017-05-16T03:22:00.664Z,37.77
2017-05-16T03:23:00.672Z,37.77
2017-05-16T03:24:00.368Z,37.77
2017-05-16T03:25:00.739Z,37.67
2017-05-16T03:26:00.698Z,37.67
2017-05-16T03:27:00.702Z,38.08
2017-05-16T03:28:00.708Z,37.96
2017-05-16T03:29:00.764Z,37.96
2017-05-16T03:30:00.727Z,37.96
2017-05-16T03:31:00.782Z,37.87
2017-05-16T03:32:00.741Z,37.98
2017-05-16T03:33:00.748Z,37.58
2017-05-16T03:34:00.755Z,37.58
2017-05-16T03:35:00.761Z,37.5
2017-05-16T03:36:00.771Z,37.4
2017-05-16T03:37:00.778Z,37.96
2017-05-16T03:38:00.785Z,37.96
2017-05-16T03:39:00.794Z,37.79
2017-05-16T03:40:00.801Z,37.48
2017-05-16T03:41:00.502Z,37.67
2017-05-16T03:42:01.114Z,37.67
2017-05-16T03:43:00.872Z,37.67
2017-05-16T03:44:00.565Z,37.79
2017-05-16T03:45:00.839Z,37.96
2017-05-16T03:46:00.850Z,37.5
2017-05-16T03:47:00.851Z,37.87
2017-05-16T03:48:00.907Z,37.87
2017-05-16T03:49:00.605Z,37.58
2017-05-16T03:50:00.880Z,37.67
2017-05-16T03:51:00.886Z,37.96
2017-05-16T03:52:00.887Z,37.67
2017-05-16T03:53:00.895Z,38.06
2017-05-16T03:54:00.904Z,37.87
2017-05-16T03:55:00.910Z,37.58
2017-05-16T03:56:00.916Z,38.06
2017-05-16T03:57:00.925Z,37.96
2017-05-16T03:58:00.943Z,37.96
2017-05-16T03:59:00.939Z,37.48
2017-05-16T04:00:00.686Z,37.67
2017-05-16T04:01:00.644Z,38.06
2017-05-16T04:02:00.650Z,37.96
2017-05-16T04:03:01.017Z,37.96
2017-05-16T04:04:00.976Z,37.87
2017-05-16T04:05:00.983Z,37.67
2017-05-16T04:06:00.684Z,37.96
2017-05-16T04:07:00.689Z,37.87
2017-05-16T04:08:01.009Z,37.96
2017-05-16T04:09:01.014Z,38.06
2017-05-16T04:10:01.071Z,37.96
2017-05-16T04:11:01.031Z,37.58
2017-05-16T04:12:01.036Z,37.58
2017-05-16T04:13:00.733Z,37.87
2017-05-16T04:14:00.739Z,37.6
2017-05-16T04:15:01.069Z,37.96
2017-05-16T04:16:01.065Z,37.96
2017-05-16T04:17:01.072Z,37.87
2017-05-16T04:18:01.132Z,37.77
2017-05-16T04:19:01.090Z,37.87
2017-05-16T04:20:01.095Z,37.87
2017-05-16T04:21:01.205Z,37.98
2017-05-16T04:22:01.111Z,37.29
2017-05-16T04:23:01.168Z,37.4
2017-05-16T04:24:01.123Z,37.96
2017-05-16T04:25:00.822Z,37.29
2017-05-16T04:26:01.139Z,37.96
2017-05-16T04:27:00.837Z,37.88
2017-05-16T04:28:01.154Z,37.96
2017-05-16T04:29:01.165Z,37.4
2017-05-16T04:30:01.171Z,37.67
2017-05-16T04:31:01.177Z,37.87
2017-05-16T04:32:01.188Z,37.77
2017-05-16T04:33:01.252Z,37.77
2017-05-16T04:34:01.199Z,37.96
2017-05-16T04:35:01.206Z,37.5
2017-05-16T04:36:01.214Z,37.38
2017-05-16T04:37:01.222Z,37.88
2017-05-16T04:38:00.968Z,37.96
2017-05-16T04:39:01.235Z,37.96
2017-05-16T04:40:01.249Z,37.77
2017-05-16T04:41:01.301Z,37.79
2017-05-16T04:42:01.260Z,37.96
2017-05-16T04:43:01.273Z,37.58
2017-05-16T04:44:01.274Z,37.88
2017-05-16T04:45:01.280Z,37.96
2017-05-16T04:46:01.288Z,37.87
2017-05-16T04:47:00.987Z,37.96
2017-05-16T04:48:01.305Z,37.96
2017-05-16T04:49:01.316Z,37.96
2017-05-16T04:50:01.320Z,37.77
2017-05-16T04:51:01.329Z,37.87
2017-05-16T04:52:01.024Z,37.96
2017-05-16T04:53:01.341Z,37.79
2017-05-16T04:54:01.399Z,37.79
2017-05-16T04:55:01.042Z,37.79
2017-05-16T04:56:01.363Z,37.7
2017-05-16T04:57:01.375Z,37.96
2017-05-16T04:58:01.377Z,37.38
2017-05-16T04:59:01.435Z,37.87
2017-05-16T05:00:01.083Z,37.38
2017-05-16T05:01:01.452Z,37.96
2017-05-16T05:02:01.409Z,37.79
2017-05-16T05:03:01.418Z,37.88
2017-05-16T05:04:01.110Z,37.77
2017-05-16T05:05:01.482Z,37.87
2017-05-16T05:06:01.438Z,37.77
2017-05-16T05:07:01.495Z,37.87
2017-05-16T05:08:01.453Z,37.77
2017-05-16T05:09:01.464Z,37.88
2017-05-16T05:10:01.468Z,37.67
2017-05-16T05:11:01.475Z,37.77
2017-05-16T05:12:01.481Z,37.87
2017-05-16T05:13:01.230Z,37.77
2017-05-16T05:14:01.497Z,37.77
2017-05-16T05:15:01.553Z,37.67
2017-05-16T05:16:01.563Z,37.7
2017-05-16T05:17:01.519Z,37.87
2017-05-16T05:18:01.216Z,37.87
2017-05-16T05:19:01.535Z,37.77
2017-05-16T05:20:01.543Z,37.87
2017-05-16T05:21:01.550Z,37.87
2017-05-16T05:22:01.558Z,37.77
2017-05-16T05:23:01.304Z,37.58
2017-05-16T05:24:01.312Z,37.77
2017-05-16T05:25:01.584Z,37.87
2017-05-16T05:26:01.588Z,37.87
2017-05-16T05:27:01.599Z,37.79
2017-05-16T05:28:01.605Z,37.67
2017-05-16T05:29:01.612Z,37.77
2017-05-16T05:30:01.619Z,37.7
2017-05-16T05:31:01.626Z,37.87
2017-05-16T05:32:01.637Z,37.87
2017-05-16T05:33:01.639Z,37.7
2017-05-16T05:34:01.695Z,37.77
2017-05-16T05:35:01.654Z,37.58
2017-05-16T05:36:01.351Z,37.88
2017-05-16T05:37:01.668Z,37.88
2017-05-16T05:38:01.678Z,37.67
2017-05-16T05:39:01.687Z,37.87
2017-05-16T05:40:01.796Z,37.87
2017-05-16T05:41:01.699Z,37.87
2017-05-16T05:42:01.706Z,37.77
2017-05-16T05:43:01.414Z,37.77
2017-05-16T05:44:01.409Z,37.58
2017-05-16T05:45:01.418Z,37.7
2017-05-16T05:46:01.735Z,37.7
2017-05-16T05:47:01.795Z,37.58
2017-05-16T05:48:01.799Z,37.58
2017-05-16T05:49:01.498Z,37.6
2017-05-16T05:50:01.818Z,37.58
2017-05-16T05:51:01.779Z,37.67
2017-05-16T05:52:01.833Z,37.58
2017-05-16T05:53:01.838Z,37.77
2017-05-16T05:54:01.800Z,37.77
2017-05-16T05:55:01.543Z,37.58
2017-05-16T05:56:01.501Z,37.4
2017-05-16T05:57:01.819Z,37.67
2017-05-16T05:58:01.828Z,37.77
2017-05-16T05:59:01.834Z,37.48
2017-05-16T06:00:01.839Z,37.48
2017-05-16T06:01:01.853Z,37.58
2017-05-16T06:02:01.546Z,37.12
2017-05-16T06:03:01.869Z,37.5
2017-05-16T06:04:01.871Z,37.4
2017-05-16T06:05:01.878Z,37.3
2017-05-16T06:06:01.888Z,37.5
2017-05-16T06:07:01.892Z,37.4
2017-05-16T06:08:01.592Z,36.92
2017-05-16T06:09:01.909Z,37.38
2017-05-16T06:10:01.969Z,37.3
2017-05-16T06:11:01.924Z,37.4
2017-05-16T06:12:01.982Z,37.5
2017-05-16T06:13:01.942Z,37.4
2017-05-16T06:14:01.637Z,37.4
2017-05-16T06:15:01.954Z,36.92
2017-05-16T06:16:01.963Z,37.21
2017-05-16T06:17:01.969Z,37.19
2017-05-16T06:18:02.028Z,37.3
2017-05-16T06:19:02.034Z,37.02
2017-05-16T06:20:01.992Z,37.12
2017-05-16T06:21:01.690Z,36.53
2017-05-16T06:22:01.697Z,36.72
2017-05-16T06:23:02.015Z,37.02
2017-05-16T06:24:02.070Z,36.72
2017-05-16T06:25:02.031Z,36.82
2017-05-16T06:26:02.037Z,36.92
2017-05-16T06:27:02.045Z,36.82
2017-05-16T06:28:01.791Z,36.63
2017-05-16T06:29:02.060Z,36.53
2017-05-16T06:30:01.757Z,36.44
2017-05-16T06:31:02.075Z,36.46
2017-05-16T06:32:02.082Z,36.53
2017-05-16T06:33:02.143Z,36.55
2017-05-16T06:34:02.098Z,36.46
2017-05-16T06:35:02.107Z,36.16
2017-05-16T06:36:02.113Z,36.16
2017-05-16T06:37:02.120Z,36.26
2017-05-16T06:38:02.130Z,35.97
2017-05-16T06:39:02.137Z,36.46
2017-05-16T06:40:02.145Z,36.46
2017-05-16T06:41:02.152Z,36.55
2017-05-16T06:42:02.160Z,36.36
2017-05-16T06:43:01.855Z,36.65
2017-05-16T06:44:02.177Z,36.53
2017-05-16T06:45:02.184Z,36.82
2017-05-16T06:46:02.188Z,36.72
2017-05-16T06:47:02.199Z,36.92
2017-05-16T06:48:02.208Z,36.53
2017-05-16T06:49:02.217Z,36.82
2017-05-16T06:50:02.220Z,36.72
2017-05-16T06:51:02.224Z,36.72
2017-05-16T06:52:02.236Z,36.82
2017-05-16T06:53:02.244Z,36.63
2017-05-16T06:54:02.296Z,36.82
2017-05-16T06:55:02.262Z,36.65
2017-05-16T06:56:02.318Z,36.55
2017-05-16T06:57:02.275Z,36.55
2017-05-16T06:58:02.280Z,35.97
2017-05-16T06:59:02.291Z,33.86
2017-05-16T07:00:01.986Z,30.84
2017-05-16T07:01:02.043Z,30.79
2017-05-16T07:02:02.002Z,31.16
2017-05-16T07:03:02.325Z,28.74
2017-05-16T07:04:02.332Z,26.95
2017-05-16T07:05:02.032Z,25.63
2017-05-16T07:06:02.399Z,24.21
2017-05-16T07:07:02.373Z,23.44
2017-05-16T07:08:02.369Z,23.46
2017-05-16T07:09:02.379Z,23.36
2017-05-16T07:10:02.439Z,24.43
2017-05-16T07:11:02.400Z,25.98
2017-05-16T07:12:02.441Z,27.97
2017-05-16T07:13:02.106Z,29.19
2017-05-16T07:14:02.429Z,29.76
2017-05-16T07:15:02.444Z,30.22
2017-05-16T07:16:02.449Z,29.75
2017-05-16T07:17:02.457Z,29.94
2017-05-16T07:18:02.467Z,30.22
2017-05-16T07:19:02.531Z,31.27
2017-05-16T07:20:02.538Z,31.16
2017-05-16T07:21:02.497Z,31.47
2017-05-16T07:22:02.502Z,31.45
2017-05-16T07:23:02.514Z,31.45
2017-05-16T07:24:02.521Z,29.14
2017-05-16T07:25:02.535Z,29.28
2017-05-16T07:26:02.541Z,29.26
2017-05-16T07:27:02.553Z,30.33
2017-05-16T07:28:02.567Z,30.9
2017-05-16T07:29:02.571Z,31.84
2017-05-16T07:30:02.584Z,32.12
2017-05-16T07:31:02.279Z,32.89
2017-05-16T07:32:02.599Z,32.87
2017-05-16T07:33:02.607Z,32.78
2017-05-16T07:34:02.349Z,32.87
2017-05-16T07:35:02.623Z,32.87
2017-05-16T07:36:02.633Z,32.68
2017-05-16T07:37:02.641Z,32.78
2017-05-16T07:38:02.649Z,32.97
2017-05-16T07:39:02.661Z,32.97
2017-05-16T07:40:02.668Z,33.06
2017-05-16T07:41:02.363Z,32.86
2017-05-16T07:42:02.373Z,33.15
2017-05-16T07:43:02.694Z,32.96
2017-05-16T07:44:02.700Z,32.86
2017-05-16T07:45:02.709Z,32.86
2017-05-16T07:46:02.720Z,33.25
2017-05-16T07:47:02.727Z,33.25
2017-05-16T07:48:02.739Z,33.44
2017-05-16T07:49:02.746Z,33.44
2017-05-16T07:50:02.756Z,33.34
2017-05-16T07:51:02.763Z,33.64
2017-05-16T07:52:02.459Z,33.34
2017-05-16T07:53:02.779Z,33.54
2017-05-16T07:54:02.788Z,33.83
2017-05-16T07:55:02.489Z,33.83
2017-05-16T07:56:02.806Z,33.73
2017-05-16T07:57:02.503Z,34.49
2017-05-16T07:58:02.511Z,33.91
2017-05-16T07:59:03.131Z,33.91
2017-05-16T08:00:03.137Z,34.11
2017-05-16T08:01:02.538Z,34.49
2017-05-16T08:02:02.858Z,34.59
2017-05-16T08:03:02.862Z,34.59
2017-05-16T08:04:02.871Z,34.11
2017-05-16T08:05:02.879Z,34.57
2017-05-16T08:06:02.578Z,34.96
2017-05-16T08:07:02.583Z,34.96
2017-05-16T08:08:02.595Z,34.77
2017-05-16T08:09:02.913Z,34.77
2017-05-16T08:10:02.919Z,34.86
2017-05-16T08:11:02.929Z,34.77
2017-05-16T08:12:02.986Z,34.86
2017-05-16T08:13:02.944Z,34.77
2017-05-16T08:14:02.952Z,35.05
2017-05-16T08:15:02.958Z,35.23
2017-05-16T08:16:02.967Z,35.15
2017-05-16T08:17:02.977Z,35.13
2017-05-16T08:18:03.043Z,35.05
2017-05-16T08:19:02.994Z,35.25
2017-05-16T08:20:03.004Z,35.25
2017-05-16T08:21:02.698Z,35.25
2017-05-16T08:22:03.016Z,34.77
2017-05-16T08:23:03.024Z,34.86
2017-05-16T08:24:03.033Z,35.15
2017-05-16T08:25:03.087Z,34.67
2017-05-16T08:26:03.049Z,34.67
2017-05-16T08:27:03.056Z,34.38
2017-05-16T08:28:02.757Z,34.01
2017-05-16T08:29:03.074Z,33.91
2017-05-16T08:30:03.084Z,34.11
2017-05-16T08:31:03.090Z,34.01
2017-05-16T08:32:02.788Z,34.2
2017-05-16T08:33:03.106Z,33.72
2017-05-16T08:34:03.114Z,33.91
2017-05-16T08:35:03.125Z,34.2
2017-05-16T08:36:02.821Z,33.91
2017-05-16T08:37:03.138Z,34.01
2017-05-16T08:38:02.838Z,33.72
2017-05-16T08:39:03.206Z,34.11
2017-05-16T08:40:03.163Z,33.81
2017-05-16T08:41:02.863Z,33.91
2017-05-16T08:42:03.180Z,33.72
2017-05-16T08:43:03.193Z,33.81
2017-05-16T08:44:03.199Z,34.11
2017-05-16T08:45:03.207Z,34.01
2017-05-16T08:46:03.270Z,34.2
2017-05-16T08:47:03.223Z,33.91
2017-05-16T08:48:03.236Z,34.11
2017-05-16T08:49:03.241Z,34.2
2017-05-16T08:50:03.246Z,34.11
2017-05-16T08:51:03.257Z,34.39
2017-05-16T08:52:03.268Z,34.38
2017-05-16T08:53:03.274Z,34.39
2017-05-16T08:54:02.972Z,34.47
2017-05-16T08:55:02.984Z,34.49
2017-05-16T08:56:03.296Z,34.49
2017-05-16T08:57:03.312Z,34.39
2017-05-16T08:58:03.363Z,34.11
2017-05-16T08:59:03.372Z,33.91
2017-05-16T09:00:03.331Z,34.59
2017-05-16T09:01:03.343Z,34.47
2017-05-16T09:02:03.397Z,34.38
2017-05-16T09:03:03.354Z,34.28
2017-05-16T09:04:03.363Z,34.09
2017-05-16T09:05:03.373Z,34.19
2017-05-16T09:06:03.383Z,34.57
2017-05-16T09:07:03.439Z,34.67
2017-05-16T09:08:03.447Z,34.57
2017-05-16T09:09:03.407Z,34.38
2017-05-16T09:10:03.412Z,34.38
2017-05-16T09:11:03.471Z,34.67
2017-05-16T09:12:03.121Z,34.09
2017-05-16T09:13:03.439Z,34.38
2017-05-16T09:14:03.447Z,34.28
2017-05-16T09:15:03.455Z,34.38
2017-05-16T09:16:03.463Z,34.28
2017-05-16T09:17:03.160Z,34.57
2017-05-16T09:18:03.527Z,34.28
2017-05-16T09:19:03.180Z,34.57
2017-05-16T09:20:03.494Z,34.57
2017-05-16T09:21:03.556Z,34.67
2017-05-16T09:22:03.515Z,34.96
2017-05-16T09:23:03.521Z,34.96
2017-05-16T09:24:03.532Z,34.96
2017-05-16T09:25:03.541Z,35.05
2017-05-16T09:26:03.596Z,34.86
2017-05-16T09:27:03.554Z,34.86
2017-05-16T09:28:03.613Z,34.86
2017-05-16T09:29:03.573Z,34.57
2017-05-16T09:30:03.581Z,34.47
2017-05-16T09:31:03.326Z,34.47
2017-05-16T09:32:03.337Z,34.38
2017-05-16T09:33:03.604Z,34.01
2017-05-16T09:34:03.612Z,34.11
2017-05-16T09:35:03.620Z,34.3
2017-05-16T09:36:03.634Z,34.3
2017-05-16T09:37:03.329Z,33.81
2017-05-16T09:38:03.647Z,34.11
2017-05-16T09:39:03.654Z,34.3
2017-05-16T09:40:03.663Z,34.39
2017-05-16T09:41:03.672Z,34.11
2017-05-16T09:42:03.679Z,34.49
2017-05-16T09:43:03.689Z,34.11
2017-05-16T09:44:03.702Z,34.49
2017-05-16T09:45:03.705Z,34.19
2017-05-16T09:46:03.713Z,34.38
2017-05-16T09:47:03.721Z,34.47
2017-05-16T09:48:03.730Z,34.86
2017-05-16T09:49:03.739Z,34.67
2017-05-16T09:50:03.746Z,34.28
2017-05-16T09:51:03.754Z,34.67
2017-05-16T09:52:03.768Z,34.67
2017-05-16T09:53:03.771Z,34.39
2017-05-16T09:54:03.778Z,34.19
2017-05-16T09:55:03.842Z,34.67
2017-05-16T09:56:03.534Z,34.19
2017-05-16T09:57:03.802Z,34.77
2017-05-16T09:58:03.813Z,34.67
2017-05-16T09:59:03.820Z,35.05
2017-05-16T10:00:03.567Z,34.96
2017-05-16T10:01:03.838Z,35.05
2017-05-16T10:02:03.845Z,34.96
2017-05-16T10:03:03.852Z,34.96
2017-05-16T10:04:03.864Z,34.86
2017-05-16T10:05:03.557Z,34.86
2017-05-16T10:06:03.927Z,35.15
2017-05-16T10:07:03.887Z,35.15
2017-05-16T10:08:03.895Z,35.25
2017-05-16T10:09:03.593Z,34.96
2017-05-16T10:10:03.912Z,35.15
2017-05-16T10:11:03.918Z,34.67
2017-05-16T10:12:03.928Z,34.67
2017-05-16T10:13:03.937Z,34.86
2017-05-16T10:14:03.634Z,34.77
2017-05-16T10:15:04.003Z,34.78
2017-05-16T10:16:03.963Z,34.69
2017-05-16T10:17:03.972Z,34.78
2017-05-16T10:18:03.977Z,34.88
2017-05-16T10:19:03.992Z,35.35
2017-05-16T10:20:04.043Z,35.15
2017-05-16T10:21:04.056Z,35.25
2017-05-16T10:22:04.009Z,35.44
2017-05-16T10:23:04.017Z,35.54
2017-05-16T10:24:04.025Z,35.54
2017-05-16T10:25:04.092Z,35.93
2017-05-16T10:26:04.043Z,36.22
2017-05-16T10:27:04.103Z,36.32
2017-05-16T10:28:04.063Z,35.93
2017-05-16T10:29:03.760Z,36.22
2017-05-16T10:30:03.768Z,36.12
2017-05-16T10:31:04.134Z,35.83
2017-05-16T10:32:04.093Z,35.73
2017-05-16T10:33:04.118Z,36.49
2017-05-16T10:34:04.107Z,36.6
2017-05-16T10:35:04.169Z,36.51
2017-05-16T10:37:04.137Z,36.32
2017-05-16T10:38:04.144Z,36.51
2017-05-16T10:39:04.150Z,36.3
2017-05-16T10:40:04.165Z,36.49
2017-05-16T10:41:04.168Z,36.51
2017-05-16T10:42:04.174Z,36.41
2017-05-16T10:43:04.234Z,36.4
2017-05-16T10:44:04.191Z,36.32
2017-05-16T10:45:04.204Z,36.6
2017-05-16T10:46:04.210Z,36.32
2017-05-16T10:47:03.906Z,36.41
2017-05-16T10:48:04.225Z,36.51
2017-05-16T10:49:04.282Z,36.3
2017-05-16T10:50:03.931Z,36.51
2017-05-16T10:51:04.249Z,36.49
2017-05-16T10:52:04.308Z,36.2
2017-05-16T10:53:04.264Z,36.51
2017-05-16T10:54:04.273Z,36.6
2017-05-16T10:55:04.285Z,36.51
2017-05-16T10:56:04.030Z,36.68
2017-05-16T10:57:04.299Z,36.49
2017-05-16T10:58:03.995Z,36.4
2017-05-16T10:59:04.414Z,36.49
2017-05-16T11:00:04.013Z,36.4
2017-05-16T11:01:04.020Z,36.6
2017-05-16T11:02:04.029Z,36.6
2017-05-16T11:03:04.039Z,36.4
2017-05-16T11:04:04.356Z,36.7
2017-05-16T11:05:04.365Z,36.6
2017-05-16T11:06:04.422Z,36.6
2017-05-16T11:07:04.382Z,36.51
2017-05-16T11:08:04.389Z,36.51
2017-05-16T11:09:04.397Z,36.32
2017-05-16T11:10:04.092Z,36.32
2017-05-16T11:11:04.412Z,36.32
2017-05-16T11:12:04.471Z,36.51
2017-05-16T11:13:04.117Z,36.8
2017-05-16T11:14:04.124Z,36.78
2017-05-16T11:15:04.447Z,36.88
2017-05-16T11:16:04.455Z,36.88
2017-05-16T11:17:04.578Z,36.78
2017-05-16T11:18:04.469Z,36.78
2017-05-16T11:19:04.478Z,36.88
2017-05-16T11:20:04.176Z,36.98
2017-05-16T11:21:04.547Z,37.26
2017-05-16T11:22:04.191Z,37.17
2017-05-16T11:23:04.509Z,37.17
2017-05-16T11:24:04.566Z,36.88
2017-05-16T11:25:04.527Z,36.88
2017-05-16T11:26:04.533Z,36.88
2017-05-16T11:27:04.645Z,37.26
2017-05-16T11:28:04.549Z,36.78
2017-05-16T11:29:04.560Z,36.88
2017-05-16T11:30:04.568Z,36.8
2017-05-16T11:31:04.575Z,36.7
2017-05-16T11:32:04.582Z,36.99
2017-05-16T11:33:04.590Z,36.7
2017-05-16T11:34:04.602Z,36.8
2017-05-16T11:35:04.295Z,36.99
2017-05-16T11:36:04.665Z,36.88
2017-05-16T11:37:04.674Z,37.19
2017-05-16T11:38:04.632Z,37.26
2017-05-16T11:39:04.640Z,37.17
2017-05-16T11:40:04.701Z,37.17
2017-05-16T11:41:04.345Z,37.09
2017-05-16T11:42:04.666Z,37.09
2017-05-16T11:43:04.676Z,36.99
2017-05-16T11:44:04.682Z,36.8
2017-05-16T11:45:04.687Z,36.99
2017-05-16T11:46:04.695Z,37.28
2017-05-16T11:47:04.704Z,37.28
2017-05-16T11:48:04.402Z,37.19
2017-05-16T11:49:04.719Z,36.9
2017-05-16T11:50:04.730Z,37.09
2017-05-16T11:51:04.738Z,37.36
2017-05-16T11:52:04.435Z,37.48
2017-05-16T11:53:04.751Z,37.36
2017-05-16T11:54:04.812Z,37.19
2017-05-16T11:55:04.773Z,36.9
2017-05-16T11:56:04.844Z,36.99
2017-05-16T11:57:04.789Z,37.48
2017-05-16T11:58:04.487Z,37.28
2017-05-16T11:59:04.805Z,37.28
2017-05-16T12:00:04.497Z,37.26
2017-05-16T12:01:04.506Z,37.28
2017-05-16T12:02:04.827Z,37.19
2017-05-16T12:03:04.984Z,37.38
2017-05-16T12:04:04.583Z,37.28
2017-05-16T12:05:04.851Z,37.26
2017-05-16T12:06:04.912Z,37.55
2017-05-16T12:07:04.865Z,37.26
2017-05-16T12:08:04.876Z,37.19
2017-05-16T12:09:04.573Z,37.19
2017-05-16T12:10:04.892Z,37.28
2017-05-16T12:11:04.905Z,37.28
2017-05-16T12:12:04.906Z,37.28
2017-05-16T12:13:04.914Z,37.38
2017-05-16T12:14:04.930Z,37.48
2017-05-16T12:15:04.933Z,37.19
2017-05-16T12:16:04.634Z,37.38
2017-05-16T12:17:04.641Z,37.38
2017-05-16T12:18:04.964Z,37.26
2017-05-16T12:19:04.656Z,37.19
2017-05-16T12:20:05.074Z,37.09
2017-05-16T12:21:04.982Z,37.28
2017-05-16T12:22:04.990Z,37.38
2017-05-16T12:23:04.996Z,37.38
2017-05-16T12:24:05.009Z,37.38
2017-05-16T12:25:04.708Z,37.48
2017-05-16T12:26:05.327Z,37.28
2017-05-16T12:27:05.034Z,37.28
2017-05-16T12:28:05.039Z,37.28
2017-05-16T12:29:05.049Z,37.57
2017-05-16T12:30:04.747Z,37.38
2017-05-16T12:31:05.063Z,37.09
2017-05-16T12:32:05.085Z,37.48
2017-05-16T12:33:05.080Z,37.38
2017-05-16T12:34:05.090Z,37.38
2017-05-16T12:35:05.109Z,37.48
2017-05-16T12:36:05.107Z,37.48
2017-05-16T12:37:05.113Z,37.77
2017-05-16T12:38:04.812Z,37.57
2017-05-16T12:39:05.137Z,37.38
2017-05-16T12:40:05.191Z,36.99
2017-05-16T12:41:05.196Z,37.48
2017-05-16T12:42:05.154Z,37.48
2017-05-16T12:43:05.165Z,37.48
2017-05-16T12:44:05.173Z,37.38
2017-05-16T12:45:05.234Z,37.28
2017-05-16T12:46:05.223Z,37.28
2017-05-16T12:47:05.197Z,37.19
2017-05-16T12:48:05.205Z,37.09
2017-05-16T12:49:04.904Z,37.57
2017-05-16T12:50:05.232Z,37.67
2017-05-16T12:51:05.232Z,37.96
2017-05-16T12:52:04.926Z,37.67
2017-05-16T12:53:04.936Z,37.67
2017-05-16T12:54:04.943Z,37.96
2017-05-16T12:55:05.273Z,37.87
2017-05-16T12:56:04.962Z,38.06
2017-05-16T12:57:05.290Z,37.96
2017-05-16T12:58:05.292Z,37.87